sensor_id;sensor_type;location;lat;lon;timestamp;pressure;altitude;pressure_sealevel;temperature;humidity
36328;BME280;22354;50.012;8.264;2022-09-23T00:01:56;100955.84;;;9.99;100.00
36328;BME280;22354;50.012;8.264;2022-09-23T00:04:22;100954.31;;;10.07;100.00
36328;BME280;22354;50.012;8.264;2022-09-23T00:06:47;100954.09;;;9.79;100.00
36328;BME280;22354;50.012;8.264;2022-09-23T00:09:12;100952.56;;;9.86;100.00
36328;BME280;22354;50.012;8.264;2022-09-23T00:11:38;100952.88;;;9.93;100.00
36328;BME280;22354;50.012;8.264;2022-09-23T00:14:03;100946.75;;;9.71;100.00
36328;BME280;22354;50.012;8.264;2022-09-23T00:16:33;100954.09;;;9.79;100.00
36328;BME280;22354;50.012;8.264;2022-09-23T00:19:00;100957.25;;;9.54;100.00
36328;BME280;22354;50.012;8.264;2022-09-23T00:21:27;100948.16;;;9.66;100.00
36328;BME280;22354;50.012;8.264;2022-09-23T00:23:52;100953.13;;;9.80;100.00
36328;BME280;22354;50.012;8.264;2022-09-23T00:26:19;100944.91;;;9.72;100.00
36328;BME280;22354;50.012;8.264;2022-09-23T00:28:46;100947.66;;;9.51;100.00
36328;BME280;22354;50.012;8.264;2022-09-23T00:31:14;100944.03;;;9.62;100.00
36328;BME280;22354;50.012;8.264;2022-09-23T00:33:39;100947.44;;;9.64;100.00
36328;BME280;22354;50.012;8.264;2022-09-23T00:36:07;100949.94;;;9.56;100.00
36328;BME280;22354;50.012;8.264;2022-09-23T00:38:33;100948.66;;;9.60;100.00
36328;BME280;22354;50.012;8.264;2022-09-23T00:40:59;100951.19;;;9.61;100.00
36328;BME280;22354;50.012;8.264;2022-09-23T00:46:01;100940.97;;;9.66;100.00
36328;BME280;22354;50.012;8.264;2022-09-23T00:48:27;100939.75;;;9.50;100.00
36328;BME280;22354;50.012;8.264;2022-09-23T00:50:53;100941.56;;;9.39;100.00
36328;BME280;22354;50.012;8.264;2022-09-23T00:53:21;100940.03;;;9.46;100.00
36328;BME280;22354;50.012;8.264;2022-09-23T00:55:51;100937.97;;;9.29;100.00
36328;BME280;22354;50.012;8.264;2022-09-23T00:58:21;100935.44;;;9.28;100.00
36328;BME280;22354;50.012;8.264;2022-09-23T01:00:48;100931.44;;;9.22;100.00
36328;BME280;22354;50.012;8.264;2022-09-23T01:03:14;100938.41;;;9.34;100.00
36328;BME280;22354;50.012;8.264;2022-09-23T01:05:40;100937.41;;;9.26;100.00
36328;BME280;22354;50.012;8.264;2022-09-23T01:08:08;100926.59;;;9.37;100.00
36328;BME280;22354;50.012;8.264;2022-09-23T01:10:48;100935.31;;;9.29;100.00
36328;BME280;22354;50.012;8.264;2022-09-23T01:16:16;100923.44;;;9.22;100.00
36328;BME280;22354;50.012;8.264;2022-09-23T01:18:53;100922.72;;;9.20;100.00
36328;BME280;22354;50.012;8.264;2022-09-23T01:21:52;100920.84;;;9.11;100.00
36328;BME280;22354;50.012;8.264;2022-09-23T01:38:33;100911.94;;;9.01;100.00
36328;BME280;22354;50.012;8.264;2022-09-23T01:41:14;100912.50;;;9.04;100.00
36328;BME280;22354;50.012;8.264;2022-09-23T01:43:56;100913.16;;;9.18;100.00
36328;BME280;22354;50.012;8.264;2022-09-23T01:46:29;100916.16;;;9.03;100.00
36328;BME280;22354;50.012;8.264;2022-09-23T01:49:16;100911.13;;;9.10;100.00
36328;BME280;22354;50.012;8.264;2022-09-23T01:51:51;100910.16;;;9.11;100.00
36328;BME280;22354;50.012;8.264;2022-09-23T01:54:27;100902.03;;;8.92;100.00
36328;BME280;22354;50.012;8.264;2022-09-23T01:56:59;100905.13;;;8.97;100.00
36328;BME280;22354;50.012;8.264;2022-09-23T01:59:37;100905.47;;;9.03;100.00
36328;BME280;22354;50.012;8.264;2022-09-23T02:02:16;100911.22;;;8.99;100.00
36328;BME280;22354;50.012;8.264;2022-09-23T02:04:49;100898.50;;;8.91;100.00
36328;BME280;22354;50.012;8.264;2022-09-23T02:07:26;100898.91;;;8.86;100.00
36328;BME280;22354;50.012;8.264;2022-09-23T02:10:02;100898.78;;;8.88;100.00
36328;BME280;22354;50.012;8.264;2022-09-23T02:12:29;100899.50;;;8.90;100.00
36328;BME280;22354;50.012;8.264;2022-09-23T02:15:22;100896.47;;;8.83;100.00
36328;BME280;22354;50.012;8.264;2022-09-23T02:17:53;100902.56;;;8.85;100.00
36328;BME280;22354;50.012;8.264;2022-09-23T02:20:31;100900.81;;;8.75;100.00
36328;BME280;22354;50.012;8.264;2022-09-23T02:23:11;100896.53;;;8.72;100.00
36328;BME280;22354;50.012;8.264;2022-09-23T02:25:52;100886.53;;;8.85;100.00
36328;BME280;22354;50.012;8.264;2022-09-23T02:28:31;100888.59;;;8.82;100.00
36328;BME280;22354;50.012;8.264;2022-09-23T02:31:07;100881.75;;;8.68;100.00
36328;BME280;22354;50.012;8.264;2022-09-23T02:33:40;100868.69;;;8.65;100.00
36328;BME280;22354;50.012;8.264;2022-09-23T02:36:14;100866.53;;;8.80;100.00
36328;BME280;22354;50.012;8.264;2022-09-23T02:38:46;100868.03;;;8.73;100.00
36328;BME280;22354;50.012;8.264;2022-09-23T02:41:25;100853.94;;;8.71;100.00
36328;BME280;22354;50.012;8.264;2022-09-23T02:44:09;100854.13;;;8.79;100.00
36328;BME280;22354;50.012;8.264;2022-09-23T02:46:36;100848.94;;;8.77;100.00
36328;BME280;22354;50.012;8.264;2022-09-23T02:49:07;100841.19;;;8.74;100.00
36328;BME280;22354;50.012;8.264;2022-09-23T02:51:35;100845.56;;;8.75;100.00
36328;BME280;22354;50.012;8.264;2022-09-23T02:54:03;100837.78;;;8.72;100.00
36328;BME280;22354;50.012;8.264;2022-09-23T02:56:31;100836.50;;;8.67;100.00
36328;BME280;22354;50.012;8.264;2022-09-23T02:58:57;100830.78;;;8.50;100.00
36328;BME280;22354;50.012;8.264;2022-09-23T03:04:17;100832.06;;;8.56;100.00
36328;BME280;22354;50.012;8.264;2022-09-23T03:09:30;100828.69;;;8.54;100.00
36328;BME280;22354;50.012;8.264;2022-09-23T03:12:15;100823.19;;;8.55;100.00
36328;BME280;22354;50.012;8.264;2022-09-23T03:14:51;100818.53;;;8.48;100.00
36328;BME280;22354;50.012;8.264;2022-09-23T03:17:30;100828.94;;;8.51;100.00
36328;BME280;22354;50.012;8.264;2022-09-23T03:20:02;100821.06;;;8.49;100.00
36328;BME280;22354;50.012;8.264;2022-09-23T03:22:35;100826.59;;;8.37;100.00
36328;BME280;22354;50.012;8.264;2022-09-23T03:25:07;100833.78;;;8.25;100.00
36328;BME280;22354;50.012;8.264;2022-09-23T03:27:34;100830.69;;;8.41;100.00
36328;BME280;22354;50.012;8.264;2022-09-23T03:30:02;100835.25;;;8.50;100.00
36328;BME280;22354;50.012;8.264;2022-09-23T03:32:28;100828.69;;;8.54;100.00
36328;BME280;22354;50.012;8.264;2022-09-23T03:34:59;100840.28;;;8.64;100.00
36328;BME280;22354;50.012;8.264;2022-09-23T03:37:29;100846.25;;;8.56;100.00
36328;BME280;22354;50.012;8.264;2022-09-23T03:40:08;100844.69;;;8.54;100.00
36328;BME280;22354;50.012;8.264;2022-09-23T03:42:37;100852.13;;;8.50;100.00
36328;BME280;22354;50.012;8.264;2022-09-23T03:45:05;100852.44;;;8.57;100.00
36328;BME280;22354;50.012;8.264;2022-09-23T03:47:34;100845.94;;;8.50;100.00
36328;BME280;22354;50.012;8.264;2022-09-23T03:49:59;100851.53;;;8.68;100.00
36328;BME280;22354;50.012;8.264;2022-09-23T03:52:25;100855.63;;;8.72;100.00
36328;BME280;22354;50.012;8.264;2022-09-23T03:54:50;100858.91;;;8.75;100.00
36328;BME280;22354;50.012;8.264;2022-09-23T03:57:16;100855.63;;;8.72;100.00
36328;BME280;22354;50.012;8.264;2022-09-23T03:59:42;100853.38;;;8.67;100.00
36328;BME280;22354;50.012;8.264;2022-09-23T04:02:07;100855.31;;;8.65;100.00
36328;BME280;22354;50.012;8.264;2022-09-23T04:04:36;100849.41;;;8.62;100.00
36328;BME280;22354;50.012;8.264;2022-09-23T04:07:02;100845.53;;;8.54;100.00
36328;BME280;22354;50.012;8.264;2022-09-23T04:09:28;100850.31;;;8.51;100.00
36328;BME280;22354;50.012;8.264;2022-09-23T04:11:53;100857.34;;;8.52;100.00
36328;BME280;22354;50.012;8.264;2022-09-23T04:14:20;100852.25;;;8.49;100.00
36328;BME280;22354;50.012;8.264;2022-09-23T04:16:46;100861.00;;;8.51;100.00
36328;BME280;22354;50.012;8.264;2022-09-23T04:19:13;100855.25;;;8.55;100.00
36328;BME280;22354;50.012;8.264;2022-09-23T04:21:39;100852.25;;;8.49;100.00
36328;BME280;22354;50.012;8.264;2022-09-23T04:24:05;100849.38;;;8.41;100.00
36328;BME280;22354;50.012;8.264;2022-09-23T04:26:31;100848.19;;;8.34;100.00
36328;BME280;22354;50.012;8.264;2022-09-23T04:28:57;100847.88;;;8.16;100.00
36328;BME280;22354;50.012;8.264;2022-09-23T04:31:22;100840.47;;;8.19;100.00
36328;BME280;22354;50.012;8.264;2022-09-23T04:33:49;100837.09;;;8.17;100.00
36328;BME280;22354;50.012;8.264;2022-09-23T04:36:14;100832.00;;;8.14;100.00
36328;BME280;22354;50.012;8.264;2022-09-23T04:38:43;100824.22;;;8.22;100.00
36328;BME280;22354;50.012;8.264;2022-09-23T04:41:09;100820.31;;;8.26;100.00
36328;BME280;22354;50.012;8.264;2022-09-23T04:43:34;100823.69;;;8.28;100.00
36328;BME280;22354;50.012;8.264;2022-09-23T04:46:01;100816.41;;;8.31;100.00
36328;BME280;22354;50.012;8.264;2022-09-23T04:48:27;100827.34;;;8.27;100.00
36328;BME280;22354;50.012;8.264;2022-09-23T04:50:53;100817.41;;;8.18;100.00
36328;BME280;22354;50.012;8.264;2022-09-23T04:53:18;100820.31;;;8.26;100.00
36328;BME280;22354;50.012;8.264;2022-09-23T04:55:45;100829.88;;;8.29;100.00
36328;BME280;22354;50.012;8.264;2022-09-23T04:58:10;100831.88;;;8.16;100.00
36328;BME280;22354;50.012;8.264;2022-09-23T05:00:36;100835.75;;;8.23;100.00
36328;BME280;22354;50.012;8.264;2022-09-23T05:03:01;100838.41;;;8.34;100.00
36328;BME280;22354;50.012;8.264;2022-09-23T05:05:26;100838.97;;;8.38;100.00
36328;BME280;22354;50.012;8.264;2022-09-23T05:07:55;100837.00;;;8.40;100.00
36328;BME280;22354;50.012;8.264;2022-09-23T05:10:21;100841.97;;;8.33;100.00
36328;BME280;22354;50.012;8.264;2022-09-23T05:12:47;100850.63;;;8.37;100.00
36328;BME280;22354;50.012;8.264;2022-09-23T05:15:13;100845.09;;;8.49;100.00
36328;BME280;22354;50.012;8.264;2022-09-23T05:17:39;100852.31;;;8.38;100.00
36328;BME280;22354;50.012;8.264;2022-09-23T05:20:05;100855.44;;;8.43;100.00
36328;BME280;22354;50.012;8.264;2022-09-23T05:22:30;100851.72;;;8.55;100.00
36328;BME280;22354;50.012;8.264;2022-09-23T05:24:56;100851.72;;;8.55;100.00
36328;BME280;22354;50.012;8.264;2022-09-23T05:27:23;100853.88;;;8.40;100.00
36328;BME280;22354;50.012;8.264;2022-09-23T05:29:49;100848.94;;;8.36;100.00
36328;BME280;22354;50.012;8.264;2022-09-23T05:32:14;100852.41;;;8.04;100.00
36328;BME280;22354;50.012;8.264;2022-09-23T05:34:40;100851.09;;;8.10;100.00
36328;BME280;22354;50.012;8.264;2022-09-23T05:37:05;100854.28;;;8.24;100.00
36328;BME280;22354;50.012;8.264;2022-09-23T05:39:31;100851.59;;;8.36;100.00
36328;BME280;22354;50.012;8.264;2022-09-23T05:41:56;100840.47;;;8.51;100.00
36328;BME280;22354;50.012;8.264;2022-09-23T05:44:24;100855.47;;;8.32;100.00
36328;BME280;22354;50.012;8.264;2022-09-23T05:46:49;100847.84;;;8.27;100.00
36328;BME280;22354;50.012;8.264;2022-09-23T05:49:14;100851.13;;;8.19;100.00
36328;BME280;22354;50.012;8.264;2022-09-23T05:51:39;100843.22;;;8.29;100.00
36328;BME280;22354;50.012;8.264;2022-09-23T05:54:05;100845.53;;;8.34;100.00
36328;BME280;22354;50.012;8.264;2022-09-23T05:56:31;100850.31;;;8.51;100.00
36328;BME280;22354;50.012;8.264;2022-09-23T05:58:58;100856.75;;;8.48;100.00
36328;BME280;22354;50.012;8.264;2022-09-23T06:01:25;100848.69;;;8.39;100.00
36328;BME280;22354;50.012;8.264;2022-09-23T06:03:54;100842.69;;;8.46;100.00
36328;BME280;22354;50.012;8.264;2022-09-23T06:06:23;100842.34;;;8.40;100.00
36328;BME280;22354;50.012;8.264;2022-09-23T06:08:50;100839.56;;;8.62;100.00
36328;BME280;22354;50.012;8.264;2022-09-23T06:11:15;100836.09;;;8.71;100.00
36328;BME280;22354;50.012;8.264;2022-09-23T06:13:40;100842.47;;;8.59;100.00
36328;BME280;22354;50.012;8.264;2022-09-23T06:16:08;100843.13;;;8.72;100.00
36328;BME280;22354;50.012;8.264;2022-09-23T06:18:34;100843.13;;;8.72;100.00
36328;BME280;22354;50.012;8.264;2022-09-23T06:21:02;100843.84;;;8.74;100.00
36328;BME280;22354;50.012;8.264;2022-09-23T06:23:28;100854.34;;;8.66;100.00
36328;BME280;22354;50.012;8.264;2022-09-23T06:26:02;100840.44;;;8.72;100.00
36328;BME280;22354;50.012;8.264;2022-09-23T06:28:29;100845.94;;;8.71;100.00
36328;BME280;22354;50.012;8.264;2022-09-23T06:30:57;100851.34;;;8.80;100.00
36328;BME280;22354;50.012;8.264;2022-09-23T06:33:23;100855.63;;;8.93;100.00
36328;BME280;22354;50.012;8.264;2022-09-23T06:35:48;100853.50;;;8.86;100.00
36328;BME280;22354;50.012;8.264;2022-09-23T06:38:13;100841.75;;;8.99;100.00
36328;BME280;22354;50.012;8.264;2022-09-23T06:40:39;100850.84;;;8.96;100.00
36328;BME280;22354;50.012;8.264;2022-09-23T06:43:04;100852.94;;;8.93;100.00
36328;BME280;22354;50.012;8.264;2022-09-23T06:45:29;100852.31;;;9.00;100.00
36328;BME280;22354;50.012;8.264;2022-09-23T06:47:56;100852.16;;;9.02;100.00
36328;BME280;22354;50.012;8.264;2022-09-23T06:50:23;100853.72;;;9.04;100.00
36328;BME280;22354;50.012;8.264;2022-09-23T06:52:55;100846.81;;;9.02;100.00
36328;BME280;22354;50.012;8.264;2022-09-23T06:55:27;100838.09;;;9.00;100.00
36328;BME280;22354;50.012;8.264;2022-09-23T06:57:53;100837.97;;;9.01;100.00
36328;BME280;22354;50.012;8.264;2022-09-23T07:00:19;100846.97;;;9.10;100.00
36328;BME280;22354;50.012;8.264;2022-09-23T07:02:45;100844.22;;;9.21;100.00
36328;BME280;22354;50.012;8.264;2022-09-23T07:05:11;100838.31;;;9.18;100.00
36328;BME280;22354;50.012;8.264;2022-09-23T07:07:37;100842.63;;;9.09;100.00
36328;BME280;22354;50.012;8.264;2022-09-23T07:10:04;100840.94;;;9.08;100.00
36328;BME280;22354;50.012;8.264;2022-09-23T07:12:33;100844.78;;;9.15;100.00
36328;BME280;22354;50.012;8.264;2022-09-23T07:14:58;100843.78;;;9.16;100.00
36328;BME280;22354;50.012;8.264;2022-09-23T07:17:24;100844.06;;;9.23;100.00
36328;BME280;22354;50.012;8.264;2022-09-23T07:19:50;100838.50;;;9.35;100.00
36328;BME280;22354;50.012;8.264;2022-09-23T07:22:16;100845.44;;;9.38;100.00
36328;BME280;22354;50.012;8.264;2022-09-23T07:24:42;100842.06;;;9.45;100.00
36328;BME280;22354;50.012;8.264;2022-09-23T07:27:11;100842.63;;;9.49;100.00
36328;BME280;22354;50.012;8.264;2022-09-23T07:29:40;100848.47;;;9.64;100.00
36328;BME280;22354;50.012;8.264;2022-09-23T07:32:06;100856.63;;;9.72;100.00
36328;BME280;22354;50.012;8.264;2022-09-23T07:34:31;100856.06;;;9.68;100.00
36328;BME280;22354;50.012;8.264;2022-09-23T07:36:56;100858.75;;;9.88;100.00
36328;BME280;22354;50.012;8.264;2022-09-23T07:39:22;100863.00;;;9.81;100.00
36328;BME280;22354;50.012;8.264;2022-09-23T07:41:47;100865.81;;;9.79;100.00
36328;BME280;22354;50.012;8.264;2022-09-23T07:44:13;100864.41;;;9.85;100.00
36328;BME280;22354;50.012;8.264;2022-09-23T07:46:38;100861.88;;;10.02;100.00
36328;BME280;22354;50.012;8.264;2022-09-23T07:49:04;100860.22;;;10.21;100.00
36328;BME280;22354;50.012;8.264;2022-09-23T07:51:33;100858.53;;;10.39;100.00
36328;BME280;22354;50.012;8.264;2022-09-23T07:53:59;100858.69;;;10.47;100.00
36328;BME280;22354;50.012;8.264;2022-09-23T07:56:26;100858.00;;;10.45;100.00
36328;BME280;22354;50.012;8.264;2022-09-23T07:58:53;100861.22;;;10.39;100.00
36328;BME280;22354;50.012;8.264;2022-09-23T08:01:45;100857.28;;;10.43;100.00
36328;BME280;22354;50.012;8.264;2022-09-23T08:04:15;100869.09;;;10.50;100.00
36328;BME280;22354;50.012;8.264;2022-09-23T08:06:43;100866.13;;;10.53;100.00
36328;BME280;22354;50.012;8.264;2022-09-23T08:09:10;100868.97;;;10.61;100.00
36328;BME280;22354;50.012;8.264;2022-09-23T08:11:35;100869.50;;;10.65;100.00
36328;BME280;22354;50.012;8.264;2022-09-23T08:14:03;100865.28;;;10.62;100.00
36328;BME280;22354;50.012;8.264;2022-09-23T08:18:54;100861.16;;;10.87;100.00
36328;BME280;22354;50.012;8.264;2022-09-23T08:21:20;100863.84;;;10.87;100.00
36328;BME280;22354;50.012;8.264;2022-09-23T08:23:46;100864.13;;;10.94;100.00
36328;BME280;22354;50.012;8.264;2022-09-23T08:26:11;100863.00;;;10.87;100.00
36328;BME280;22354;50.012;8.264;2022-09-23T08:28:37;100858.19;;;10.90;100.00
36328;BME280;22354;50.012;8.264;2022-09-23T08:31:02;100862.38;;;11.03;100.00
36328;BME280;22354;50.012;8.264;2022-09-23T08:33:28;100859.91;;;11.19;100.00
36328;BME280;22354;50.012;8.264;2022-09-23T08:35:59;100854.44;;;11.20;100.00
36328;BME280;22354;50.012;8.264;2022-09-23T08:38:25;100852.38;;;11.32;100.00
36328;BME280;22354;50.012;8.264;2022-09-23T08:40:51;100857.06;;;11.30;100.00
36328;BME280;22354;50.012;8.264;2022-09-23T08:43:25;100857.41;;;11.45;100.00
36328;BME280;22354;50.012;8.264;2022-09-23T08:45:54;100852.63;;;11.48;100.00
36328;BME280;22354;50.012;8.264;2022-09-23T08:48:27;100851.00;;;11.56;100.00
36328;BME280;22354;50.012;8.264;2022-09-23T08:51:01;100851.00;;;11.56;100.00
36328;BME280;22354;50.012;8.264;2022-09-23T08:53:31;100851.97;;;11.64;100.00
36328;BME280;22354;50.012;8.264;2022-09-23T08:55:58;100850.31;;;11.81;100.00
36328;BME280;22354;50.012;8.264;2022-09-23T09:04:04;100853.44;;;12.39;100.00
36328;BME280;22354;50.012;8.264;2022-09-23T09:06:44;100849.22;;;12.63;100.00
36328;BME280;22354;50.012;8.264;2022-09-23T09:09:20;100851.19;;;12.53;100.00
36328;BME280;22354;50.012;8.264;2022-09-23T09:11:50;100848.97;;;12.74;100.00
36328;BME280;22354;50.012;8.264;2022-09-23T09:14:41;100850.72;;;12.83;100.00
36328;BME280;22354;50.012;8.264;2022-09-23T09:17:13;100853.09;;;12.86;100.00
36328;BME280;22354;50.012;8.264;2022-09-23T09:19:52;100855.25;;;12.83;100.00
36328;BME280;22354;50.012;8.264;2022-09-23T09:22:48;100842.41;;;12.94;100.00
36328;BME280;22354;50.012;8.264;2022-09-23T09:25:32;100843.94;;;13.23;100.00
36328;BME280;22354;50.012;8.264;2022-09-23T09:28:02;100839.38;;;13.57;100.00
36328;BME280;22354;50.012;8.264;2022-09-23T09:30:29;100831.25;;;13.49;100.00
36328;BME280;22354;50.012;8.264;2022-09-23T09:33:12;100829.94;;;13.53;100.00
36328;BME280;22354;50.012;8.264;2022-09-23T09:35:58;100828.31;;;13.69;100.00
36328;BME280;22354;50.012;8.264;2022-09-23T09:38:27;100827.31;;;13.70;100.00
36328;BME280;22354;50.012;8.264;2022-09-23T09:40:54;100823.19;;;13.41;100.00
36328;BME280;22354;50.012;8.264;2022-09-23T09:43:24;100820.38;;;13.59;100.00
36328;BME280;22354;50.012;8.264;2022-09-23T09:49:15;100812.97;;;13.61;100.00
36328;BME280;22354;50.012;8.264;2022-09-23T09:51:47;100806.25;;;13.57;100.00
36328;BME280;22354;50.012;8.264;2022-09-23T09:54:22;100804.94;;;13.69;100.00
36328;BME280;22354;50.012;8.264;2022-09-23T09:56:49;100805.09;;;13.68;100.00
36328;BME280;22354;50.012;8.264;2022-09-23T09:59:18;100809.00;;;13.81;100.00
36328;BME280;22354;50.012;8.264;2022-09-23T10:01:48;100815.69;;;13.69;100.00
36328;BME280;22354;50.012;8.264;2022-09-23T10:04:27;100806.94;;;13.67;100.00
36328;BME280;22354;50.012;8.264;2022-09-23T10:07:14;100810.47;;;13.76;100.00
36328;BME280;22354;50.012;8.264;2022-09-23T10:09:48;100804.81;;;13.95;100.00
36328;BME280;22354;50.012;8.264;2022-09-23T10:12:17;100798.06;;;13.99;100.00
36328;BME280;22354;50.012;8.264;2022-09-23T10:14:44;100794.31;;;13.76;100.00
36328;BME280;22354;50.012;8.264;2022-09-23T10:17:31;100791.00;;;13.82;100.00
36328;BME280;22354;50.012;8.264;2022-09-23T10:19:59;100792.66;;;13.91;100.00
36328;BME280;22354;50.012;8.264;2022-09-23T10:22:37;100790.50;;;14.03;100.00
36328;BME280;22354;50.012;8.264;2022-09-23T10:25:22;100791.00;;;13.98;100.00
36328;BME280;22354;50.012;8.264;2022-09-23T10:27:51;100790.34;;;14.29;100.00
36328;BME280;22354;50.012;8.264;2022-09-23T10:30:22;100789.50;;;14.28;100.00
36328;BME280;22354;50.012;8.264;2022-09-23T10:32:49;100788.84;;;14.34;100.00
36328;BME280;22354;50.012;8.264;2022-09-23T10:35:17;100791.03;;;14.47;100.00
36328;BME280;22354;50.012;8.264;2022-09-23T10:37:49;100784.81;;;14.47;100.00
36328;BME280;22354;50.012;8.264;2022-09-23T10:46:30;100775.53;;;14.49;100.00
36328;BME280;22354;50.012;8.264;2022-09-23T10:52:39;100767.41;;;14.41;100.00
36328;BME280;22354;50.012;8.264;2022-09-23T10:57:56;100754.59;;;14.67;100.00
36328;BME280;22354;50.012;8.264;2022-09-23T11:11:47;100751.53;;;14.87;100.00
36328;BME280;22354;50.012;8.264;2022-09-23T11:14:21;100748.28;;;14.99;100.00
36328;BME280;22354;50.012;8.264;2022-09-23T11:17:03;100744.38;;;15.02;100.00
36328;BME280;22354;50.012;8.264;2022-09-23T11:20:01;100737.22;;;15.17;100.00
36328;BME280;22354;50.012;8.264;2022-09-23T11:22:55;100738.88;;;15.26;100.00
36328;BME280;22354;50.012;8.264;2022-09-23T11:36:32;100722.03;;;15.47;100.00
36328;BME280;22354;50.012;8.264;2022-09-23T11:39:01;100723.69;;;15.56;100.00
36328;BME280;22354;50.012;8.264;2022-09-23T11:41:32;100726.31;;;15.73;100.00
36328;BME280;22354;50.012;8.264;2022-09-23T11:44:20;100718.34;;;15.79;100.00
36328;BME280;22354;50.012;8.264;2022-09-23T11:46:58;100711.97;;;15.72;100.00
36328;BME280;22354;50.012;8.264;2022-09-23T11:49:31;100712.13;;;15.71;100.00
36328;BME280;22354;50.012;8.264;2022-09-23T11:52:09;100718.09;;;15.89;100.00
36328;BME280;22354;50.012;8.264;2022-09-23T11:54:42;100709.22;;;15.80;100.00
36328;BME280;22354;50.012;8.264;2022-09-23T11:57:56;100706.31;;;15.82;100.00
36328;BME280;22354;50.012;8.264;2022-09-23T12:00:05;100698.50;;;15.87;100.00
36328;BME280;22354;50.012;8.264;2022-09-23T12:05:23;100690.16;;;15.97;100.00
36328;BME280;22354;50.012;8.264;2022-09-23T12:08:00;100687.59;;;16.18;100.00
36328;BME280;22354;50.012;8.264;2022-09-23T12:13:34;100679.41;;;16.26;100.00
36328;BME280;22354;50.012;8.264;2022-09-23T12:16:10;100683.13;;;16.25;100.00
36328;BME280;22354;50.012;8.264;2022-09-23T12:24:13;100678.22;;;16.58;100.00
36328;BME280;22354;50.012;8.264;2022-09-23T12:26:43;100681.31;;;16.99;100.00
36328;BME280;22354;50.012;8.264;2022-09-23T12:29:10;100675.94;;;16.70;100.00
36328;BME280;22354;50.012;8.264;2022-09-23T12:31:38;100672.34;;;16.55;100.00
36328;BME280;22354;50.012;8.264;2022-09-23T12:34:19;100665.53;;;16.59;100.00
36328;BME280;22354;50.012;8.264;2022-09-23T12:36:46;100672.19;;;16.71;100.00
36328;BME280;22354;50.012;8.264;2022-09-23T12:39:29;100665.53;;;16.59;100.00
36328;BME280;22354;50.012;8.264;2022-09-23T12:41:59;100667.16;;;16.68;100.00
36328;BME280;22354;50.012;8.264;2022-09-23T12:44:37;100660.50;;;17.00;100.00
36328;BME280;22354;50.012;8.264;2022-09-23T12:49:52;100655.91;;;17.36;100.00
36328;BME280;22354;50.012;8.264;2022-09-23T12:54:48;100665.50;;;17.39;100.00
36328;BME280;22354;50.012;8.264;2022-09-23T13:02:37;100659.50;;;17.22;100.00
36328;BME280;22354;50.012;8.264;2022-09-23T13:07:51;100649.69;;;18.35;100.00
36328;BME280;22354;50.012;8.264;2022-09-23T13:10:33;100649.31;;;18.38;100.00
36328;BME280;22354;50.012;8.264;2022-09-23T13:13:05;100640.78;;;18.75;100.00
36328;BME280;22354;50.012;8.264;2022-09-23T13:15:33;100633.66;;;18.40;100.00
36328;BME280;22354;50.012;8.264;2022-09-23T13:20:42;100637.84;;;17.65;100.00
36328;BME280;22354;50.012;8.264;2022-09-23T13:23:19;100636.22;;;17.28;100.00
36328;BME280;22354;50.012;8.264;2022-09-23T13:25:44;100635.19;;;17.07;100.00
36328;BME280;22354;50.012;8.264;2022-09-23T13:28:31;100629.22;;;16.97;100.00
36328;BME280;22354;50.012;8.264;2022-09-23T13:30:57;100622.88;;;16.90;100.00
36328;BME280;22354;50.012;8.264;2022-09-23T13:33:37;100623.38;;;16.94;100.00
36328;BME280;22354;50.012;8.264;2022-09-23T13:36:11;100618.94;;;17.07;100.00
36328;BME280;22354;50.012;8.264;2022-09-23T13:38:36;100611.47;;;17.09;100.00
36328;BME280;22354;50.012;8.264;2022-09-23T13:41:06;100608.75;;;17.31;100.00
36328;BME280;22354;50.012;8.264;2022-09-23T13:46:12;100607.88;;;17.24;100.00
36328;BME280;22354;50.012;8.264;2022-09-23T13:48:39;100610.75;;;17.01;100.00
36328;BME280;22354;50.012;8.264;2022-09-23T13:51:09;100606.06;;;17.31;100.00
36328;BME280;22354;50.012;8.264;2022-09-23T13:53:35;100604.38;;;17.51;100.00
36328;BME280;22354;50.012;8.264;2022-09-23T13:56:12;100604.75;;;17.27;100.00
36328;BME280;22354;50.012;8.264;2022-09-23T13:58:38;100602.38;;;17.38;100.00
36328;BME280;22354;50.012;8.264;2022-09-23T14:01:07;100590.09;;;17.36;100.00
36328;BME280;22354;50.012;8.264;2022-09-23T14:03:39;100599.94;;;17.22;100.00
36328;BME280;22354;50.012;8.264;2022-09-23T14:06:08;100579.41;;;17.56;100.00
36328;BME280;22354;50.012;8.264;2022-09-23T14:08:37;100591.44;;;17.47;100.00
36328;BME280;22354;50.012;8.264;2022-09-23T14:11:04;100586.50;;;17.57;100.00
36328;BME280;22354;50.012;8.264;2022-09-23T14:13:40;100581.47;;;17.54;100.00
36328;BME280;22354;50.012;8.264;2022-09-23T14:16:09;100575.09;;;17.40;100.00
36328;BME280;22354;50.012;8.264;2022-09-23T14:18:38;100572.09;;;17.71;100.00
36328;BME280;22354;50.012;8.264;2022-09-23T14:21:05;100578.84;;;17.39;100.00
36328;BME280;22354;50.012;8.264;2022-09-23T14:23:47;100575.09;;;17.40;100.00
36328;BME280;22354;50.012;8.264;2022-09-23T14:26:12;100571.69;;;17.74;100.00
36328;BME280;22354;50.012;8.264;2022-09-23T14:28:38;100576.38;;;17.87;100.00
36328;BME280;22354;50.012;8.264;2022-09-23T14:31:03;100571.81;;;17.94;100.00
36328;BME280;22354;50.012;8.264;2022-09-23T14:33:31;100572.38;;;17.83;100.00
36328;BME280;22354;50.012;8.264;2022-09-23T14:36:13;100568.94;;;17.46;100.00
36328;BME280;22354;50.012;8.264;2022-09-23T14:39:02;100571.13;;;17.36;100.00
36328;BME280;22354;50.012;8.264;2022-09-23T14:41:33;100571.69;;;17.74;100.00
36328;BME280;22354;50.012;8.264;2022-09-23T14:44:00;100570.22;;;17.50;100.00